Reklama

Seznam meteostanic a jejich METAR

Vyhledat místa podle abecedy:
A B C D E F G H I J K L M N O P Q R S T U V W X Y Z

Filtrovat:

ID stanice:
a/nebo
Název místa (fulltext):
 
Místo (ID)Naposledy načteno 
Temelín (Temelin) 08.04.2020 00:00 UTC Zobrazit data
Místo: Temelín
Teplota: 8 °C (pocitová: 2.6 °C)
Vítr: 4 m/s z(e) 60°
Počasí:
Dohlednost: 35 km
Zákl. oblačnosti: N/A
Vlhkost: 43%
Tahiti (NTAA) 08.04.2020 00:00 UTC Zobrazit METAR
NTAA 080000Z AUTO 24005KT 9999 FEW035/// SCT056/// 31/23 Q1010 NOSIG
Taipei (RCTP) 08.04.2020 00:00 UTC Zobrazit METAR
RCTP 080000Z 05013KT 9999 FEW015 BKN030 BKN050 18/14 Q1016 NOSIG RMK A3003
Taipei (RCSS) 08.04.2020 00:00 UTC Zobrazit METAR
RCSS 080000Z 10007KT 9999 FEW018 BKN025 BKN040 19/16 Q1016 NOSIG RMK A3003
Tallinn (EETN) 07.04.2020 23:50 UTC Zobrazit METAR
EETN 072350Z 30014KT 9999 NSC 05/02 Q1023
Tampere (EFTP) 07.04.2020 23:50 UTC Zobrazit METAR
EFTP 072350Z AUTO 28005KT 260V320 CAVOK 02/M01 Q1022
Tarawa I (NGTA) 08.04.2020 00:00 UTC Zobrazit METAR
NGTA 080000Z 09008KT 9999 SCT019 31/26 Q1009
Targu Mures (LRTM) 07.04.2020 17:00 UTC Zobrazit METAR
LRTM 071700Z 36003KT CAVOK 15/M08 Q1031
Tartu (EETU) 07.04.2020 23:50 UTC Zobrazit METAR
EETU 072350Z AUTO 30011G22KT 260V330 9999 OVC017/// 07/04 Q1020
Tashkent (UTTT) 08.04.2020 00:00 UTC Zobrazit METAR
UTTT 080000Z 33008KT 300V360 9999 OVC008 05/04 Q1022 R08L/29//50 NOSIG
Tbilisi (UGGG) Zatím nenačteno  
Tegucigalpa (MHTG) 07.04.2020 21:00 UTC Zobrazit METAR
MHTG 072100Z 09010KT 9999 FEW034 BKN200 31/13 Q1018 A3006
Tehran (OIII) 07.04.2020 23:00 UTC Zobrazit METAR
OIII 072300Z 30006KT 7000 SCT035 BKN090 08/06 Q1017 A3003 NOSIG
Tel Aviv (LLBG) 07.04.2020 23:50 UTC Zobrazit METAR
LLBG 072350Z 14006KT 9999 -RA SCT028 BKN045 14/10 Q1015 NOSIG
Tenerife (GCTS) 08.04.2020 00:00 UTC Zobrazit METAR
GCTS 080000Z 09005KT 9999 SCT020 20/17 Q1021 NOSIG
Thessaloniki (LGTS) 07.04.2020 23:50 UTC Zobrazit METAR
LGTS 072350Z 12004KT CAVOK 10/M01 Q1028 NOSIG
Thule (BGTL) 07.04.2020 23:56 UTC Zobrazit METAR
BGTL 072356Z AUTO 12005KT 9999 CLR M14/M16 A2997 RMK AO2 SLP138 T11431160 11092 21147 52017 TSNO $
Timisoara (LRTR) 08.04.2020 00:00 UTC Zobrazit METAR
LRTR 080000Z 11006KT CAVOK 07/M07 Q1032
Tirana (LATI) 07.04.2020 23:50 UTC Zobrazit METAR
LATI 072350Z 00000KT CAVOK 06/00 Q1025 NOSIG
Tokyo (RJTT) 08.04.2020 00:00 UTC Zobrazit METAR
RJTT 080000Z 03004KT 9999 FEW020 13/07 Q1013 BECMG 08006KT
Torp (ENTO) 07.04.2020 20:50 UTC Zobrazit METAR
ENTO 072050Z 27003KT CAVOK 08/M02 Q1028 NOSIG
Toulouse (LFBO) 08.04.2020 00:00 UTC Zobrazit METAR
LFBO 080000Z AUTO 14010KT 110V170 CAVOK 13/08 Q1025 NOSIG
Tripoli (HLLT) 13.07.2014 03:50 UTC Zobrazit METAR
HLLT 130350Z 11009KT CAVOK 24/15 Q1015
Trondheim (ENVA) 07.04.2020 23:50 UTC Zobrazit METAR
ENVA 072350Z AUTO VRB02KT 9999 BKN140/// 08/M03 Q1017 RMK WIND 670FT 20017G27KT
Tunis (DTTA) 08.04.2020 00:00 UTC Zobrazit METAR
DTTA 080000Z 00000KT 9999 FEW020 11/10 Q1025
Turku (EFTU) 07.04.2020 23:50 UTC Zobrazit METAR
EFTU 072350Z AUTO 29007KT CAVOK 02/M01 Q1025
Reklama

Počasí na Váš email

Emaily jsou bez reklamy a bez spamu



Odhlásit newsletter

Reklama


Lunární kalendář

  • 15.04.
  • 23.04.
  • 30.04.
  • 07.05.





Vyhledat na internetu:
Reklama